createdAt,value
2022-12-29T00:01:07.633Z,90.29
2022-12-29T00:03:35.266Z,90.22
2022-12-29T00:06:03.780Z,90.20
2022-12-29T00:08:43.054Z,90.15
2022-12-29T00:11:17.128Z,90.03
2022-12-29T00:14:03.513Z,89.83
2022-12-29T00:16:32.324Z,89.73
2022-12-29T00:19:00.292Z,89.62
2022-12-29T00:21:46.925Z,89.55
2022-12-29T00:24:27.804Z,89.32
2022-12-29T00:27:22.835Z,89.08
2022-12-29T00:30:09.381Z,89.11
2022-12-29T00:32:56.124Z,89.00
2022-12-29T00:35:40.822Z,89.07
2022-12-29T00:38:30.379Z,88.88
2022-12-29T00:41:16.492Z,89.05
2022-12-29T00:44:04.108Z,89.12
2022-12-29T00:46:35.354Z,88.96
2022-12-29T00:49:23.845Z,88.61
2022-12-29T00:51:51.588Z,88.05
2022-12-29T00:54:19.276Z,88.92
2022-12-29T00:56:49.750Z,89.35
2022-12-29T00:59:19.493Z,89.26
2022-12-29T01:01:48.910Z,89.09
2022-12-29T01:04:16.566Z,88.75
2022-12-29T01:06:46.323Z,89.30
2022-12-29T01:09:36.642Z,89.45
2022-12-29T01:12:06.358Z,89.46
2022-12-29T01:14:36.163Z,89.53
2022-12-29T01:17:04.953Z,89.35
2022-12-29T01:19:33.709Z,89.28
2022-12-29T01:22:01.889Z,89.32
2022-12-29T01:24:29.389Z,89.34
2022-12-29T01:26:56.804Z,89.27
2022-12-29T01:29:24.335Z,89.22
2022-12-29T01:31:51.851Z,89.17
2022-12-29T01:34:19.373Z,89.20
2022-12-29T01:36:46.839Z,89.09
2022-12-29T01:39:14.626Z,88.96
2022-12-29T01:41:42.579Z,88.89
2022-12-29T01:44:55.615Z,88.91
2022-12-29T01:47:37.478Z,88.98
2022-12-29T01:50:12.481Z,88.94
2022-12-29T01:52:49.045Z,88.98
2022-12-29T01:55:17.130Z,88.70
2022-12-29T01:57:53.914Z,88.47
2022-12-29T02:00:21.685Z,88.44
2022-12-29T02:02:54.473Z,88.51
2022-12-29T02:05:46.572Z,89.19
2022-12-29T02:08:15.178Z,89.34
2022-12-29T02:10:44.676Z,89.24
2022-12-29T02:13:12.115Z,89.34
2022-12-29T02:16:05.555Z,89.58
2022-12-29T02:19:31.310Z,89.19
2022-12-29T02:22:36.091Z,88.76
2022-12-29T02:25:40.469Z,88.39
2022-12-29T02:28:48.097Z,88.23
2022-12-29T02:31:36.394Z,88.26
2022-12-29T02:34:41.434Z,88.20
2022-12-29T02:37:23.406Z,88.00
2022-12-29T02:39:57.986Z,87.73
2022-12-29T02:42:57.814Z,87.36
2022-12-29T02:45:51.437Z,87.04
2022-12-29T02:48:29.030Z,86.78
2022-12-29T02:51:26.631Z,86.91
2022-12-29T02:54:14.414Z,86.80
2022-12-29T02:56:41.897Z,86.71
2022-12-29T02:59:10.593Z,86.68
2022-12-29T03:02:18.811Z,86.74
2022-12-29T03:05:05.833Z,87.11
2022-12-29T03:07:49.706Z,86.92
2022-12-29T03:11:01.557Z,86.55
2022-12-29T03:14:10.319Z,86.65
2022-12-29T03:16:58.081Z,86.69
2022-12-29T03:19:35.951Z,87.72
2022-12-29T03:22:27.909Z,88.23
2022-12-29T03:25:34.493Z,86.89
2022-12-29T03:28:11.634Z,85.43
2022-12-29T03:30:46.577Z,85.96
2022-12-29T03:33:21.893Z,88.79
2022-12-29T03:35:54.848Z,89.80
2022-12-29T03:38:34.525Z,88.15
2022-12-29T03:41:10.640Z,89.49
2022-12-29T03:43:38.721Z,89.77
2022-12-29T03:46:06.814Z,89.49
2022-12-29T03:48:35.266Z,88.07
2022-12-29T03:51:02.721Z,86.74
2022-12-29T03:53:30.350Z,86.96
2022-12-29T03:55:59.017Z,88.74
2022-12-29T03:58:26.695Z,90.52
2022-12-29T04:01:12.643Z,90.54
2022-12-29T04:03:40.499Z,90.58
2022-12-29T04:06:08.825Z,90.27
2022-12-29T04:09:05.620Z,89.99
2022-12-29T04:11:37.195Z,89.60
2022-12-29T04:14:05.169Z,89.29
2022-12-29T04:16:36.706Z,88.91
2022-12-29T04:19:08.543Z,86.34
2022-12-29T04:21:37.493Z,86.09
2022-12-29T04:24:07.743Z,86.86
2022-12-29T04:26:40.203Z,88.71
2022-12-29T04:29:23.783Z,89.37
2022-12-29T04:32:10.363Z,88.38
2022-12-29T04:34:43.226Z,89.45
2022-12-29T04:37:10.939Z,90.71
2022-12-29T04:39:38.441Z,91.04
2022-12-29T04:42:07.550Z,91.03
2022-12-29T04:44:37.634Z,90.78
2022-12-29T04:47:13.186Z,90.64
2022-12-29T04:50:01.129Z,90.73
2022-12-29T04:52:44.627Z,90.84
2022-12-29T04:55:14.837Z,90.73
2022-12-29T04:57:43.333Z,90.54
2022-12-29T05:00:15.483Z,90.52
2022-12-29T05:02:43.314Z,90.66
2022-12-29T05:05:10.929Z,90.53
2022-12-29T05:07:42.937Z,90.45
2022-12-29T05:10:11.551Z,90.44
2022-12-29T05:12:39.689Z,90.40
2022-12-29T05:15:10.242Z,90.27
2022-12-29T05:18:18.843Z,90.23
2022-12-29T05:20:47.366Z,90.25
2022-12-29T05:23:15.641Z,90.13
2022-12-29T05:25:46.693Z,90.10
2022-12-29T05:28:34.359Z,90.07
2022-12-29T05:31:11.627Z,90.15
2022-12-29T05:33:39.495Z,90.11
2022-12-29T05:36:10.995Z,90.12
2022-12-29T05:38:42.899Z,90.21
2022-12-29T05:41:10.728Z,90.20
2022-12-29T05:44:04.216Z,90.22
2022-12-29T05:46:32.046Z,90.12
2022-12-29T05:49:10.792Z,90.13
2022-12-29T05:52:44.404Z,90.02
2022-12-29T05:55:13.015Z,89.88
2022-12-29T05:57:41.554Z,89.87
2022-12-29T06:00:15.673Z,89.79
2022-12-29T06:02:45.632Z,89.68
2022-12-29T06:05:14.058Z,89.64
2022-12-29T06:07:41.886Z,89.62
2022-12-29T06:10:09.776Z,89.53
2022-12-29T06:12:44.710Z,89.55
2022-12-29T06:15:12.228Z,89.63
2022-12-29T06:17:41.820Z,89.57
2022-12-29T06:20:10.902Z,89.57
2022-12-29T06:22:39.615Z,89.61
2022-12-29T06:25:08.128Z,89.57
2022-12-29T06:27:36.402Z,89.50
2022-12-29T06:30:04.629Z,88.88
2022-12-29T06:32:32.156Z,88.73
2022-12-29T06:35:09.469Z,85.93
2022-12-29T06:37:41.706Z,82.72
2022-12-29T06:40:10.084Z,80.11
2022-12-29T06:43:06.609Z,76.22
2022-12-29T06:45:41.381Z,73.14
2022-12-29T06:48:08.877Z,71.45
2022-12-29T06:50:36.288Z,69.12
2022-12-29T06:53:04.355Z,67.84
2022-12-29T06:55:31.935Z,65.25
2022-12-29T06:57:59.960Z,61.55
2022-12-29T07:00:27.569Z,58.45
2022-12-29T07:02:57.953Z,56.93
2022-12-29T07:05:28.625Z,57.16
2022-12-29T07:07:56.621Z,54.82
2022-12-29T07:10:24.361Z,54.37
2022-12-29T07:12:51.763Z,51.73
2022-12-29T07:15:19.258Z,51.33
2022-12-29T07:17:46.642Z,51.13
2022-12-29T07:20:14.145Z,50.53
2022-12-29T07:22:41.589Z,50.84
2022-12-29T07:25:09.730Z,46.88
2022-12-29T07:27:36.973Z,46.39
2022-12-29T07:30:04.939Z,45.11
2022-12-29T07:32:35.532Z,40.59
2022-12-29T07:35:03.383Z,41.08
2022-12-29T07:37:30.692Z,40.75
2022-12-29T07:39:58.217Z,40.76
2022-12-29T07:42:25.763Z,40.32
2022-12-29T07:44:53.861Z,39.92
2022-12-29T07:47:51.511Z,39.61
2022-12-29T07:50:18.967Z,37.68
2022-12-29T07:52:48.021Z,39.78
2022-12-29T07:55:17.070Z,39.90
2022-12-29T07:57:44.619Z,35.43
2022-12-29T08:00:12.816Z,34.80
2022-12-29T08:02:40.653Z,34.61
2022-12-29T08:05:08.625Z,32.74
2022-12-29T08:07:36.145Z,32.57
2022-12-29T08:10:04.397Z,32.56
2022-12-29T08:12:32.020Z,33.18
2022-12-29T08:14:59.407Z,32.80
2022-12-29T08:17:26.714Z,32.19
2022-12-29T08:19:54.173Z,32.80
2022-12-29T08:22:21.597Z,32.67
2022-12-29T08:24:49.194Z,33.05
2022-12-29T08:27:20.676Z,32.19
2022-12-29T08:29:49.242Z,31.27
2022-12-29T08:32:17.397Z,31.66
2022-12-29T08:34:45.030Z,30.61
2022-12-29T08:37:12.326Z,31.10
2022-12-29T08:39:40.024Z,32.15
2022-12-29T08:42:07.430Z,35.87
2022-12-29T08:44:34.882Z,37.11
2022-12-29T08:47:02.426Z,41.92
2022-12-29T08:49:29.872Z,45.83
2022-12-29T08:51:57.357Z,49.81
2022-12-29T08:54:24.815Z,50.47
2022-12-29T08:56:52.760Z,52.54
2022-12-29T08:59:22.217Z,52.84
2022-12-29T09:01:50.033Z,54.38
2022-12-29T09:04:18.389Z,57.58
2022-12-29T09:06:46.594Z,58.44
2022-12-29T09:09:14.450Z,57.67
2022-12-29T09:11:43.137Z,58.65
2022-12-29T09:14:10.726Z,58.29
2022-12-29T09:16:39.129Z,58.03
2022-12-29T09:19:06.448Z,58.36
2022-12-29T09:21:33.824Z,59.03
2022-12-29T09:24:01.281Z,59.27
2022-12-29T09:26:28.638Z,48.28
2022-12-29T09:28:56.064Z,37.86
2022-12-29T09:31:23.623Z,34.56
2022-12-29T09:33:51.104Z,38.88
2022-12-29T09:36:18.624Z,40.08
2022-12-29T09:38:46.056Z,44.15
2022-12-29T09:41:35.755Z,46.10
2022-12-29T09:44:24.184Z,49.87
2022-12-29T09:46:55.196Z,50.39
2022-12-29T09:49:32.085Z,51.20
2022-12-29T09:52:12.177Z,52.95
2022-12-29T09:55:06.529Z,53.78
2022-12-29T09:57:57.485Z,53.59
2022-12-29T10:00:55.913Z,53.90
2022-12-29T10:03:34.748Z,52.75
2022-12-29T10:06:21.094Z,44.19
2022-12-29T10:09:29.656Z,42.02
2022-12-29T10:12:51.307Z,37.13
2022-12-29T10:15:49.131Z,35.80
2022-12-29T10:18:50.048Z,34.52
2022-12-29T10:21:23.931Z,35.22
2022-12-29T10:23:54.094Z,34.32
2022-12-29T10:26:31.192Z,34.74
2022-12-29T10:29:12.436Z,32.45
2022-12-29T10:31:55.290Z,30.62
2022-12-29T10:34:33.441Z,29.14
2022-12-29T10:37:18.227Z,29.27
2022-12-29T10:39:53.238Z,32.77
2022-12-29T10:42:30.652Z,33.78
2022-12-29T10:45:00.455Z,35.18
2022-12-29T10:47:38.392Z,37.67
2022-12-29T10:50:06.812Z,37.05
2022-12-29T10:52:38.791Z,41.27
2022-12-29T10:55:16.580Z,45.63
2022-12-29T10:57:48.525Z,42.91
2022-12-29T11:00:23.506Z,39.73
2022-12-29T11:03:29.222Z,35.24
2022-12-29T11:06:13.540Z,32.23
2022-12-29T11:09:03.478Z,28.96
2022-12-29T11:11:37.673Z,28.93
2022-12-29T11:14:19.691Z,27.53
2022-12-29T11:17:02.870Z,28.28
2022-12-29T11:19:40.524Z,28.75
2022-12-29T11:22:24.028Z,32.26
2022-12-29T11:24:53.924Z,31.60
2022-12-29T11:27:25.392Z,34.91
2022-12-29T11:29:55.196Z,35.68
2022-12-29T11:32:33.126Z,38.15
2022-12-29T11:35:01.915Z,38.00
2022-12-29T11:37:40.906Z,39.64
2022-12-29T11:40:20.878Z,40.61
2022-12-29T11:42:55.611Z,42.80
2022-12-29T11:45:33.478Z,43.37
2022-12-29T11:48:30.565Z,41.07
2022-12-29T11:51:03.259Z,43.92
2022-12-29T11:53:54.416Z,43.57
2022-12-29T11:56:43.493Z,44.95
2022-12-29T11:59:30.873Z,45.49
2022-12-29T12:02:03.213Z,46.60
2022-12-29T12:04:38.303Z,47.64
2022-12-29T12:07:08.658Z,51.38
2022-12-29T12:09:59.071Z,52.16
2022-12-29T12:12:53.264Z,54.59
2022-12-29T12:15:50.079Z,56.28
2022-12-29T12:18:38.323Z,57.02
2022-12-29T12:21:18.400Z,57.03
2022-12-29T12:24:19.013Z,57.75
2022-12-29T12:26:49.469Z,56.88
2022-12-29T12:29:39.519Z,56.69
2022-12-29T12:32:22.147Z,56.32
2022-12-29T12:34:51.139Z,56.62
2022-12-29T12:37:49.686Z,55.90
2022-12-29T12:40:40.107Z,56.13
2022-12-29T12:43:38.480Z,54.96
2022-12-29T12:46:24.094Z,52.94
2022-12-29T12:49:06.451Z,51.65
2022-12-29T12:52:14.299Z,50.99
2022-12-29T12:55:07.533Z,50.84
2022-12-29T12:58:14.859Z,50.16
2022-12-29T13:01:15.873Z,50.60
2022-12-29T13:04:22.667Z,51.74
2022-12-29T13:07:15.561Z,51.21
2022-12-29T13:10:05.890Z,50.70
2022-12-29T13:12:45.727Z,50.97
2022-12-29T13:15:59.174Z,50.69
2022-12-29T13:18:47.641Z,50.37
2022-12-29T13:22:05.657Z,50.00
2022-12-29T13:25:15.973Z,50.13
2022-12-29T13:28:21.498Z,50.99
2022-12-29T13:31:05.774Z,51.15
2022-12-29T13:33:58.889Z,50.89
2022-12-29T13:36:40.759Z,50.54
2022-12-29T13:39:26.254Z,50.70
2022-12-29T13:41:59.149Z,50.52
2022-12-29T13:44:37.074Z,50.78
2022-12-29T13:47:16.650Z,50.74
2022-12-29T13:49:45.279Z,50.70
2022-12-29T13:52:44.603Z,50.62
2022-12-29T13:55:38.473Z,51.42
2022-12-29T13:58:46.777Z,52.58
2022-12-29T14:01:55.632Z,53.20
2022-12-29T14:04:30.888Z,53.68
2022-12-29T14:07:15.971Z,53.81
2022-12-29T14:09:53.669Z,52.54
2022-12-29T14:12:31.143Z,52.25
2022-12-29T14:15:23.123Z,52.50
2022-12-29T14:18:17.742Z,52.69
2022-12-29T14:21:01.004Z,53.19
2022-12-29T14:23:43.541Z,54.03
2022-12-29T14:26:31.281Z,54.80
2022-12-29T14:29:22.577Z,55.40
2022-12-29T14:31:51.250Z,55.41
2022-12-29T14:34:21.482Z,56.11
2022-12-29T14:37:04.379Z,56.18
2022-12-29T14:39:37.876Z,56.48
2022-12-29T14:42:20.024Z,56.47
2022-12-29T14:44:47.393Z,56.68
2022-12-29T14:47:31.321Z,56.71
2022-12-29T14:50:20.706Z,57.58
2022-12-29T14:53:05.108Z,59.35
2022-12-29T14:55:56.085Z,57.36
2022-12-29T14:58:59.439Z,56.51
2022-12-29T15:01:49.491Z,56.02
2022-12-29T15:04:26.407Z,57.80
2022-12-29T15:06:55.261Z,60.13
2022-12-29T15:09:39.747Z,59.23
2022-12-29T15:12:20.898Z,58.50
2022-12-29T15:14:55.335Z,58.89
2022-12-29T15:17:34.049Z,58.74
2022-12-29T15:20:18.064Z,59.62
2022-12-29T15:22:51.340Z,61.00
2022-12-29T15:25:19.400Z,61.32
2022-12-29T15:28:04.590Z,62.21
2022-12-29T15:30:32.493Z,63.16
2022-12-29T15:32:59.978Z,64.17
2022-12-29T15:35:38.528Z,64.29
2022-12-29T15:38:29.741Z,63.59
2022-12-29T15:41:20.237Z,63.69
2022-12-29T15:44:09.652Z,63.49
2022-12-29T15:46:38.124Z,63.86
2022-12-29T15:49:09.515Z,63.41
2022-12-29T15:51:41.327Z,63.48
2022-12-29T15:54:22.890Z,63.72
2022-12-29T15:56:51.129Z,63.55
2022-12-29T15:59:35.342Z,63.35
2022-12-29T16:02:10.165Z,63.46
2022-12-29T16:05:01.556Z,63.74
2022-12-29T16:07:40.794Z,63.80
2022-12-29T16:10:34.586Z,63.70
2022-12-29T16:13:22.126Z,63.78
2022-12-29T16:16:03.756Z,64.21
2022-12-29T16:18:38.492Z,63.85
2022-12-29T16:21:22.818Z,63.34
2022-12-29T16:23:55.604Z,63.60
2022-12-29T16:26:27.639Z,63.62
2022-12-29T16:29:08.232Z,63.27
2022-12-29T16:31:50.775Z,63.23
2022-12-29T16:34:28.964Z,63.62
2022-12-29T16:37:06.397Z,62.87
2022-12-29T16:39:40.917Z,62.73
2022-12-29T16:42:39.420Z,63.69
2022-12-29T16:45:22.427Z,64.69
2022-12-29T16:48:14.645Z,65.50
2022-12-29T16:50:44.923Z,65.16
2022-12-29T16:53:27.864Z,65.39
2022-12-29T16:56:01.518Z,66.42
2022-12-29T16:58:32.533Z,66.49
2022-12-29T17:01:03.643Z,67.51
2022-12-29T17:03:53.541Z,67.15
2022-12-29T17:06:24.276Z,67.03
2022-12-29T17:08:53.395Z,66.80
2022-12-29T17:11:57.709Z,65.59
2022-12-29T17:14:53.735Z,63.63
2022-12-29T17:17:37.001Z,64.04
2022-12-29T17:20:19.893Z,65.15
2022-12-29T17:22:48.707Z,65.10
2022-12-29T17:25:22.096Z,65.35
2022-12-29T17:27:56.645Z,65.52
2022-12-29T17:30:32.857Z,65.69
2022-12-29T17:33:04.480Z,66.52
2022-12-29T17:35:31.875Z,67.16
2022-12-29T17:37:59.460Z,67.40
2022-12-29T17:40:33.891Z,68.08
2022-12-29T17:43:03.645Z,68.30
2022-12-29T17:45:32.833Z,68.49
2022-12-29T17:48:01.867Z,68.66
2022-12-29T17:50:34.521Z,69.19
2022-12-29T17:53:12.323Z,68.91
2022-12-29T17:55:40.411Z,69.05
2022-12-29T17:58:27.111Z,69.34
2022-12-29T18:01:01.142Z,69.99
2022-12-29T18:03:40.770Z,70.60
2022-12-29T18:06:11.776Z,71.08
2022-12-29T18:08:41.387Z,71.25
2022-12-29T18:11:25.905Z,71.52
2022-12-29T18:13:54.881Z,71.26
2022-12-29T18:16:25.357Z,71.03
2022-12-29T18:18:52.855Z,71.10
2022-12-29T18:21:23.004Z,71.78
2022-12-29T18:23:51.396Z,71.99
2022-12-29T18:26:27.754Z,72.03
2022-12-29T18:28:59.348Z,72.21
2022-12-29T18:31:31.035Z,72.39
2022-12-29T18:34:02.231Z,72.94
2022-12-29T18:36:30.079Z,73.00
2022-12-29T18:38:57.459Z,73.12
2022-12-29T18:41:31.084Z,72.98
2022-12-29T18:44:01.380Z,72.66
2022-12-29T18:46:28.951Z,72.79
2022-12-29T18:48:56.576Z,73.34
2022-12-29T18:51:25.962Z,73.19
2022-12-29T18:53:57.832Z,72.85
2022-12-29T18:56:25.523Z,73.07
2022-12-29T18:58:53.668Z,72.51
2022-12-29T19:01:23.532Z,71.35
2022-12-29T19:03:51.518Z,70.76
2022-12-29T19:06:21.001Z,69.76
2022-12-29T19:08:48.702Z,69.45
2022-12-29T19:11:16.321Z,69.07
2022-12-29T19:13:43.878Z,68.82
2022-12-29T19:16:20.121Z,68.67
2022-12-29T19:18:58.562Z,68.31
2022-12-29T19:21:36.863Z,67.97
2022-12-29T19:24:04.949Z,67.88
2022-12-29T19:26:37.105Z,67.95
2022-12-29T19:29:08.291Z,67.96
2022-12-29T19:31:40.321Z,67.99
2022-12-29T19:34:10.591Z,69.27
2022-12-29T19:36:38.107Z,69.09
2022-12-29T19:39:06.059Z,68.76
2022-12-29T19:41:33.551Z,68.75
2022-12-29T19:44:01.038Z,68.61
2022-12-29T19:46:31.671Z,68.84
2022-12-29T19:49:00.108Z,68.85
2022-12-29T19:51:29.782Z,68.98
2022-12-29T19:53:58.561Z,69.07
2022-12-29T19:56:28.368Z,69.08
2022-12-29T19:58:57.508Z,68.76
2022-12-29T20:01:26.193Z,68.70
2022-12-29T20:03:53.792Z,68.43
2022-12-29T20:06:23.769Z,68.53
2022-12-29T20:08:51.352Z,68.30
2022-12-29T20:11:19.517Z,67.88
2022-12-29T20:13:47.525Z,67.68
2022-12-29T20:16:20.487Z,67.52
2022-12-29T20:18:49.315Z,67.59
2022-12-29T20:21:20.797Z,67.79
2022-12-29T20:23:49.591Z,68.01
2022-12-29T20:26:22.525Z,68.23
2022-12-29T20:28:51.014Z,68.16
2022-12-29T20:31:22.763Z,68.11
2022-12-29T20:33:50.253Z,68.29
2022-12-29T20:36:22.576Z,68.53
2022-12-29T20:38:52.946Z,68.51
2022-12-29T20:41:22.435Z,68.40
2022-12-29T20:43:51.317Z,68.72
2022-12-29T20:46:21.829Z,68.75
2022-12-29T20:48:51.459Z,68.88
2022-12-29T20:51:24.555Z,69.13
2022-12-29T20:53:52.735Z,69.05
2022-12-29T20:56:25.472Z,69.00
2022-12-29T21:01:42.585Z,69.23
2022-12-29T21:04:10.144Z,69.22
2022-12-29T21:06:38.461Z,69.28
2022-12-29T21:09:06.494Z,69.64
2022-12-29T21:11:35.959Z,69.81
2022-12-29T21:14:03.655Z,69.97
2022-12-29T21:16:31.066Z,70.38
2022-12-29T21:18:58.806Z,70.37
2022-12-29T21:21:26.548Z,70.35
2022-12-29T21:23:55.051Z,70.38
2022-12-29T21:26:24.241Z,70.45
2022-12-29T21:28:51.977Z,71.13
2022-12-29T21:31:26.481Z,70.91
2022-12-29T21:33:55.334Z,70.67
2022-12-29T21:36:24.166Z,70.32
2022-12-29T21:38:51.972Z,70.24
2022-12-29T21:41:20.551Z,70.18
2022-12-29T21:44:07.394Z,69.99
2022-12-29T21:46:38.926Z,70.00
2022-12-29T21:49:07.799Z,69.90
2022-12-29T21:51:51.658Z,69.63
2022-12-29T21:54:45.029Z,68.89
2022-12-29T21:57:34.178Z,68.59
2022-12-29T22:00:20.571Z,67.83
2022-12-29T22:03:06.425Z,67.80
2022-12-29T22:05:52.702Z,67.45
2022-12-29T22:08:38.847Z,67.43
2022-12-29T22:11:27.118Z,67.34
2022-12-29T22:13:56.260Z,67.34
2022-12-29T22:16:25.329Z,67.17
2022-12-29T22:18:53.293Z,67.01
2022-12-29T22:21:20.804Z,66.78
2022-12-29T22:23:48.198Z,66.78
2022-12-29T22:26:16.702Z,67.15
2022-12-29T22:28:48.276Z,67.21
2022-12-29T22:31:28.988Z,67.17
2022-12-29T22:33:58.979Z,67.47
2022-12-29T22:36:27.762Z,67.65
2022-12-29T22:38:55.503Z,67.93
2022-12-29T22:41:23.322Z,68.20
2022-12-29T22:43:53.113Z,68.50
2022-12-29T22:46:23.295Z,68.99
2022-12-29T22:48:50.868Z,69.21
2022-12-29T22:51:18.577Z,69.57
2022-12-29T22:53:49.897Z,70.33
2022-12-29T22:56:17.832Z,70.57
2022-12-29T22:58:48.462Z,70.73
2022-12-29T23:01:19.341Z,71.17
2022-12-29T23:03:47.204Z,71.57
2022-12-29T23:06:17.233Z,71.71
2022-12-29T23:08:47.394Z,72.60
2022-12-29T23:11:14.885Z,72.46
2022-12-29T23:13:45.049Z,73.08
2022-12-29T23:16:15.039Z,73.34
2022-12-29T23:18:44.657Z,73.72
2022-12-29T23:21:12.792Z,74.66
2022-12-29T23:24:03.928Z,75.18
2022-12-29T23:26:38.815Z,75.29
2022-12-29T23:29:10.314Z,75.30
2022-12-29T23:31:38.927Z,75.99
2022-12-29T23:34:07.861Z,76.24
2022-12-29T23:36:36.286Z,76.46
2022-12-29T23:39:04.952Z,76.60
2022-12-29T23:41:32.436Z,74.37
2022-12-29T23:44:00.055Z,73.81
2022-12-29T23:46:29.782Z,72.86
2022-12-29T23:48:57.782Z,72.14
2022-12-29T23:51:25.376Z,72.46
2022-12-29T23:53:52.792Z,72.47
2022-12-29T23:56:23.536Z,72.97
2022-12-29T23:58:52.125Z,73.44
